createdAt,value
2022-12-31T00:01:27.195Z,100351.25
2022-12-31T00:03:54.886Z,100357.34
2022-12-31T00:06:27.543Z,100351.44
2022-12-31T00:08:55.709Z,100353.19
2022-12-31T00:11:23.729Z,100345.31
2022-12-31T00:13:50.585Z,100345.25
2022-12-31T00:16:22.788Z,100351.25
2022-12-31T00:18:52.103Z,100350.41
2022-12-31T00:21:19.733Z,100359.78
2022-12-31T00:23:46.275Z,100364.84
2022-12-31T00:26:16.276Z,100357.97
2022-12-31T00:28:43.590Z,100364.94
2022-12-31T00:31:18.902Z,100372.50
2022-12-31T00:33:46.294Z,100363.03
2022-12-31T00:36:18.794Z,100368.97
2022-12-31T00:38:47.040Z,100375.72
2022-12-31T00:41:14.883Z,100367.06
2022-12-31T00:43:41.929Z,100369.63
2022-12-31T00:46:13.830Z,100368.00
2022-12-31T00:48:40.391Z,100379.91
2022-12-31T00:51:08.806Z,100388.56
2022-12-31T00:53:36.096Z,100373.22
2022-12-31T00:56:09.920Z,100369.63
2022-12-31T00:58:36.374Z,100379.84
2022-12-31T01:01:16.079Z,100379.09
2022-12-31T01:03:42.770Z,100374.03
2022-12-31T01:06:09.618Z,100380.13
2022-12-31T01:08:36.693Z,100372.50
2022-12-31T01:11:18.971Z,100369.94
2022-12-31T01:13:47.055Z,100372.63
2022-12-31T01:16:15.095Z,100369.19
2022-12-31T01:18:42.480Z,100373.69
2022-12-31T01:21:11.502Z,100377.16
2022-12-31T01:23:39.162Z,100376.41
2022-12-31T01:26:07.760Z,100372.16
2022-12-31T01:28:34.374Z,100373.91
2022-12-31T01:31:09.218Z,100369.72
2022-12-31T01:33:36.067Z,100368.97
2022-12-31T01:36:13.910Z,100378.47
2022-12-31T01:38:41.531Z,100375.06
2022-12-31T01:41:12.491Z,100376.03
2022-12-31T01:43:46.542Z,100382.09
2022-12-31T01:46:17.702Z,100383.06
2022-12-31T01:48:48.850Z,100380.50
2022-12-31T01:51:15.693Z,100371.19
2022-12-31T01:53:43.334Z,100381.47
2022-12-31T01:56:10.232Z,100384.91
2022-12-31T01:58:43.040Z,100389.38
2022-12-31T02:01:12.051Z,100393.75
2022-12-31T02:03:38.946Z,100403.13
2022-12-31T02:06:11.763Z,100410.75
2022-12-31T02:08:42.162Z,100405.63
2022-12-31T02:11:38.589Z,100396.31
2022-12-31T02:14:13.196Z,100375.88
2022-12-31T02:17:04.215Z,100372.56
2022-12-31T02:19:57.033Z,100371.75
2022-12-31T02:23:02.242Z,100371.91
2022-12-31T02:25:51.503Z,100366.09
2022-12-31T02:29:11.348Z,100372.13
2022-12-31T02:31:47.275Z,100361.09
2022-12-31T02:34:24.909Z,100331.22
2022-12-31T02:36:54.598Z,100333.78
2022-12-31T02:39:21.732Z,100342.31
2022-12-31T02:41:52.267Z,100341.50
2022-12-31T02:44:31.570Z,100349.34
2022-12-31T02:47:10.468Z,100342.53
2022-12-31T02:49:52.909Z,100349.50
2022-12-31T02:52:37.293Z,100368.28
2022-12-31T02:55:14.416Z,100378.63
2022-12-31T02:57:55.751Z,100378.69
2022-12-31T03:00:41.655Z,100385.63
2022-12-31T03:03:09.207Z,100391.59
2022-12-31T03:05:41.517Z,100396.78
2022-12-31T03:08:08.341Z,100407.97
2022-12-31T03:10:35.542Z,100416.59
2022-12-31T03:13:02.227Z,100418.34
2022-12-31T03:15:33.941Z,100407.25
2022-12-31T03:18:03.256Z,100414.97
2022-12-31T03:21:03.601Z,100404.75
2022-12-31T03:23:47.526Z,100409.97
2022-12-31T03:26:13.922Z,100397.19
2022-12-31T03:28:42.781Z,100407.53
2022-12-31T03:31:09.500Z,100411.00
2022-12-31T03:33:39.374Z,100411.88
2022-12-31T03:36:14.699Z,100406.81
2022-12-31T03:38:41.595Z,100415.41
2022-12-31T03:41:10.724Z,100408.63
2022-12-31T03:43:37.190Z,100407.84
2022-12-31T03:46:03.659Z,100404.44
2022-12-31T03:48:30.217Z,100395.94
2022-12-31T03:50:56.643Z,100389.09
2022-12-31T03:53:23.169Z,100393.44
2022-12-31T03:55:53.941Z,100399.50
2022-12-31T03:58:21.632Z,100400.38
2022-12-31T04:00:48.340Z,100402.19
2022-12-31T04:03:14.790Z,100388.50
2022-12-31T04:05:41.371Z,100392.88
2022-12-31T04:08:07.834Z,100387.81
2022-12-31T04:10:34.296Z,100386.97
2022-12-31T04:13:04.264Z,100384.47
2022-12-31T04:15:30.665Z,100381.13
2022-12-31T04:17:57.132Z,100380.31
2022-12-31T04:20:23.561Z,100371.81
2022-12-31T04:22:50.012Z,100364.13
2022-12-31T04:25:16.405Z,100361.63
2022-12-31T04:27:43.803Z,100353.16
2022-12-31T04:30:12.447Z,100349.75
2022-12-31T04:32:39.009Z,100357.50
2022-12-31T04:35:06.300Z,100363.63
2022-12-31T04:37:32.742Z,100355.06
2022-12-31T04:40:05.767Z,100375.59
2022-12-31T04:42:32.861Z,100377.41
2022-12-31T04:44:59.287Z,100380.81
2022-12-31T04:47:25.733Z,100366.22
2022-12-31T04:49:54.899Z,100378.25
2022-12-31T04:52:21.760Z,100379.97
2022-12-31T04:54:48.162Z,100373.03
2022-12-31T04:57:14.603Z,100372.22
2022-12-31T04:59:41.006Z,100377.34
2022-12-31T05:02:07.733Z,100377.28
2022-12-31T05:04:34.283Z,100374.72
2022-12-31T05:07:00.733Z,100374.72
2022-12-31T05:09:28.327Z,100375.53
2022-12-31T05:11:55.062Z,100396.94
2022-12-31T05:14:21.648Z,100381.47
2022-12-31T05:16:48.200Z,100363.50
2022-12-31T05:19:14.678Z,100382.28
2022-12-31T05:21:41.382Z,100378.84
2022-12-31T05:24:08.317Z,100375.34
2022-12-31T05:26:35.404Z,100374.47
2022-12-31T05:29:02.060Z,100382.94
2022-12-31T05:31:28.610Z,100369.13
2022-12-31T05:33:55.234Z,100389.53
2022-12-31T05:36:21.622Z,100375.75
2022-12-31T05:38:48.079Z,100399.56
2022-12-31T05:41:14.573Z,100404.56
2022-12-31T05:43:40.999Z,100388.25
2022-12-31T05:46:07.885Z,100388.16
2022-12-31T05:48:34.361Z,100389.66
2022-12-31T05:51:00.847Z,100386.06
2022-12-31T05:53:27.279Z,100384.28
2022-12-31T05:55:53.686Z,100392.63
2022-12-31T05:58:20.159Z,100401.94
2022-12-31T06:00:46.546Z,100386.44
2022-12-31T06:03:13.323Z,100389.81
2022-12-31T06:05:43.920Z,100385.53
2022-12-31T06:08:12.152Z,100385.38
2022-12-31T06:10:39.584Z,100381.00
2022-12-31T06:13:06.301Z,100379.22
2022-12-31T06:15:32.938Z,100385.19
2022-12-31T06:17:59.493Z,100391.13
2022-12-31T06:20:26.089Z,100391.94
2022-12-31T06:22:54.920Z,100390.97
2022-12-31T06:25:21.365Z,100394.34
2022-12-31T06:27:47.799Z,100399.50
2022-12-31T06:30:14.445Z,100389.97
2022-12-31T06:32:40.980Z,100390.81
2022-12-31T06:35:07.858Z,100394.22
2022-12-31T06:37:34.585Z,100405.25
2022-12-31T06:40:01.330Z,100406.78
2022-12-31T06:42:31.592Z,100416.13
2022-12-31T06:44:59.176Z,100412.56
2022-12-31T06:47:26.129Z,100425.22
2022-12-31T06:49:53.107Z,100419.94
2022-12-31T06:52:19.753Z,100416.41
2022-12-31T06:54:46.805Z,100423.16
2022-12-31T06:57:13.554Z,100427.16
2022-12-31T06:59:40.316Z,100431.84
2022-12-31T07:02:31.601Z,100417.88
2022-12-31T07:05:12.941Z,100413.03
2022-12-31T07:07:56.177Z,100404.06
2022-12-31T07:10:44.127Z,100410.69
2022-12-31T07:13:23.691Z,100406.94
2022-12-31T07:16:26.240Z,100408.59
2022-12-31T07:19:01.805Z,100399.13
2022-12-31T07:21:34.964Z,100398.94
2022-12-31T07:24:01.800Z,100402.03
2022-12-31T07:26:43.480Z,100393.34
2022-12-31T07:29:46.281Z,100395.47
2022-12-31T07:32:44.386Z,100404.41
2022-12-31T07:35:36.109Z,100406.56
2022-12-31T07:38:12.463Z,100419.38
2022-12-31T07:41:09.278Z,100425.25
2022-12-31T07:43:55.256Z,100425.81
2022-12-31T07:46:34.823Z,100429.91
2022-12-31T07:49:01.979Z,100422.22
2022-12-31T07:51:28.693Z,100424.06
2022-12-31T07:53:55.095Z,100437.00
2022-12-31T07:56:21.569Z,100434.97
2022-12-31T07:58:52.544Z,100454.47
2022-12-31T08:01:57.675Z,100442.28
2022-12-31T08:04:39.345Z,100429.25
2022-12-31T08:07:20.995Z,100431.81
2022-12-31T08:10:05.535Z,100445.75
2022-12-31T08:12:35.859Z,100451.69
2022-12-31T08:15:02.722Z,100448.31
2022-12-31T08:17:29.311Z,100433.66
2022-12-31T08:19:55.951Z,100455.09
2022-12-31T08:22:37.609Z,100433.66
2022-12-31T08:25:08.779Z,100446.53
2022-12-31T08:27:50.420Z,100445.53
2022-12-31T08:30:20.772Z,100451.59
2022-12-31T08:33:13.224Z,100457.66
2022-12-31T08:36:08.911Z,100465.38
2022-12-31T08:39:09.276Z,100484.22
2022-12-31T08:41:45.114Z,100515.22
2022-12-31T08:44:32.806Z,100505.91
2022-12-31T08:47:02.214Z,100505.97
2022-12-31T08:49:31.999Z,100515.44
2022-12-31T08:51:59.706Z,100519.88
2022-12-31T08:54:26.741Z,100537.13
2022-12-31T08:57:00.918Z,100538.06
2022-12-31T08:59:43.610Z,100548.41
2022-12-31T09:02:10.074Z,100565.47
2022-12-31T09:04:54.775Z,100563.81
2022-12-31T09:07:27.403Z,100549.25
2022-12-31T09:10:26.041Z,100560.38
2022-12-31T09:13:07.323Z,100572.38
2022-12-31T09:15:41.564Z,100567.91
2022-12-31T09:18:09.377Z,100569.72
2022-12-31T09:20:44.716Z,100568.78
2022-12-31T09:23:12.860Z,100577.88
2022-12-31T09:25:50.182Z,100582.88
2022-12-31T09:28:37.688Z,100574.03
2022-12-31T09:31:13.393Z,100573.75
2022-12-31T09:33:56.122Z,100571.91
2022-12-31T09:36:32.026Z,100576.16
2022-12-31T09:39:14.274Z,100566.63
2022-12-31T09:42:17.799Z,100568.38
2022-12-31T09:45:26.291Z,100571.63
2022-12-31T09:47:52.770Z,100574.81
2022-12-31T09:50:37.644Z,100588.44
2022-12-31T09:53:10.519Z,100585.75
2022-12-31T09:55:45.461Z,100589.00
2022-12-31T09:58:51.330Z,100587.94
2022-12-31T10:01:25.826Z,100587.06
2022-12-31T10:04:06.319Z,100584.41
2022-12-31T10:07:03.958Z,100582.56
2022-12-31T10:10:01.502Z,100589.09
2022-12-31T10:13:12.832Z,100579.31
2022-12-31T10:16:24.835Z,100586.28
2022-12-31T10:19:16.922Z,100579.91
2022-12-31T10:22:28.028Z,100581.34
2022-12-31T10:25:19.839Z,100586.41
2022-12-31T10:28:21.193Z,100565.63
2022-12-31T10:31:26.038Z,100590.13
2022-12-31T10:34:12.517Z,100593.31
2022-12-31T10:36:55.163Z,100605.00
2022-12-31T10:39:27.129Z,100592.81
2022-12-31T10:42:18.619Z,100592.09
2022-12-31T10:45:20.857Z,100589.50
2022-12-31T10:48:18.736Z,100580.91
2022-12-31T10:51:20.776Z,100597.38
2022-12-31T10:54:37.342Z,100586.31
2022-12-31T10:58:03.597Z,100603.47
2022-12-31T11:00:38.405Z,100607.56
2022-12-31T11:03:38.988Z,100578.34
2022-12-31T11:06:11.352Z,100588.81
2022-12-31T11:09:07.673Z,100592.22
2022-12-31T11:11:43.018Z,100598.81
2022-12-31T11:14:34.040Z,100585.00
2022-12-31T11:17:18.661Z,100593.50
2022-12-31T11:20:15.046Z,100584.59
2022-12-31T11:23:02.517Z,100596.69
2022-12-31T11:25:54.106Z,100574.59
2022-12-31T11:28:35.250Z,100579.19
2022-12-31T11:31:28.721Z,100586.16
2022-12-31T11:34:01.399Z,100586.97
2022-12-31T11:36:53.485Z,100582.75
2022-12-31T11:39:49.196Z,100591.22
2022-12-31T11:42:26.724Z,100598.81
2022-12-31T11:45:11.471Z,100594.50
2022-12-31T11:51:12.547Z,100608.00
2022-12-31T11:53:38.936Z,100605.00
2022-12-31T11:56:23.198Z,100596.91
2022-12-31T11:58:52.756Z,100605.16
2022-12-31T12:01:36.172Z,100601.59
2022-12-31T12:04:03.546Z,100591.16
2022-12-31T12:06:32.551Z,100592.94
2022-12-31T12:09:03.511Z,100599.59
2022-12-31T12:11:34.246Z,100585.59
2022-12-31T12:14:03.513Z,100571.84
2022-12-31T12:16:30.129Z,100583.94
2022-12-31T12:19:10.907Z,100576.19
2022-12-31T12:21:46.237Z,100575.59
2022-12-31T12:24:23.145Z,100580.84
2022-12-31T12:26:49.710Z,100580.03
2022-12-31T12:29:22.294Z,100577.44
2022-12-31T12:32:03.963Z,100583.59
2022-12-31T12:34:40.904Z,100573.25
2022-12-31T12:37:36.978Z,100573.94
2022-12-31T12:40:19.787Z,100582.34
2022-12-31T12:42:53.748Z,100573.19
2022-12-31T12:45:21.897Z,100567.28
2022-12-31T12:47:53.440Z,100563.03
2022-12-31T12:50:23.697Z,100581.91
2022-12-31T12:52:59.390Z,100583.69
2022-12-31T12:55:37.159Z,100577.59
2022-12-31T12:58:30.049Z,100586.84
2022-12-31T13:01:05.538Z,100599.53
2022-12-31T13:06:51.156Z,100609.59
2022-12-31T13:09:58.350Z,100608.75
2022-12-31T13:13:22.914Z,100613.00
2022-12-31T13:15:50.397Z,100601.94
2022-12-31T13:18:41.635Z,100615.75
2022-12-31T13:21:41.663Z,100615.91
2022-12-31T13:24:50.026Z,100605.84
2022-12-31T13:27:34.109Z,100610.41
2022-12-31T13:30:04.610Z,100606.25
2022-12-31T13:32:42.462Z,100614.03
2022-12-31T13:35:32.885Z,100616.78
2022-12-31T13:38:06.005Z,100607.41
2022-12-31T13:40:54.366Z,100618.75
2022-12-31T13:43:50.480Z,100628.22
2022-12-31T13:46:40.685Z,100610.41
2022-12-31T13:49:34.249Z,100631.13
2022-12-31T13:52:19.072Z,100621.50
2022-12-31T13:54:54.829Z,100618.16
2022-12-31T13:57:45.916Z,100622.56
2022-12-31T14:00:25.352Z,100613.06
2022-12-31T14:02:58.326Z,100620.81
2022-12-31T14:05:33.192Z,100614.66
2022-12-31T14:08:01.855Z,100613.84
2022-12-31T14:10:41.599Z,100619.91
2022-12-31T14:13:49.398Z,100624.16
2022-12-31T14:16:40.282Z,100616.34
2022-12-31T14:19:16.835Z,100612.00
2022-12-31T14:21:54.363Z,100611.03
2022-12-31T14:24:32.737Z,100622.09
2022-12-31T14:27:03.692Z,100628.94
2022-12-31T14:29:54.517Z,100622.03
2022-12-31T14:32:23.661Z,100657.41
2022-12-31T14:35:15.220Z,100655.63
2022-12-31T14:38:05.595Z,100662.09
2022-12-31T14:40:56.994Z,100656.59
2022-12-31T14:43:29.073Z,100643.91
2022-12-31T14:46:15.820Z,100659.31
2022-12-31T14:49:09.207Z,100650.66
2022-12-31T14:51:37.051Z,100652.25
2022-12-31T14:54:04.035Z,100658.31
2022-12-31T14:56:45.915Z,100657.50
2022-12-31T14:59:33.354Z,100668.22
2022-12-31T15:02:03.894Z,100673.59
2022-12-31T15:04:46.406Z,100666.06
2022-12-31T15:07:43.247Z,100666.31
2022-12-31T15:10:26.169Z,100676.47
2022-12-31T15:13:18.786Z,100677.44
2022-12-31T15:16:04.436Z,100678.53
2022-12-31T15:18:55.288Z,100663.09
2022-12-31T15:21:36.543Z,100657.94
2022-12-31T15:24:20.204Z,100653.03
2022-12-31T15:26:53.104Z,100660.84
2022-12-31T15:29:26.411Z,100657.91
2022-12-31T15:31:54.200Z,100650.09
2022-12-31T15:34:25.530Z,100653.19
2022-12-31T15:36:59.725Z,100642.53
2022-12-31T15:39:32.171Z,100628.66
2022-12-31T15:44:59.211Z,100626.25
2022-12-31T15:47:38.899Z,100642.63
2022-12-31T15:50:12.523Z,100643.41
2022-12-31T15:52:44.867Z,100638.06
2022-12-31T15:55:42.493Z,100627.84
2022-12-31T15:58:19.416Z,100637.59
2022-12-31T16:01:11.903Z,100644.59
2022-12-31T16:03:44.884Z,100643.69
2022-12-31T16:06:14.433Z,100645.97
2022-12-31T16:08:45.429Z,100642.31
2022-12-31T16:11:12.529Z,100638.06
2022-12-31T16:13:48.715Z,100637.38
2022-12-31T16:16:23.106Z,100649.38
2022-12-31T16:18:53.221Z,100644.03
2022-12-31T16:21:38.566Z,100638.50
2022-12-31T16:24:23.502Z,100630.97
2022-12-31T16:26:53.559Z,100626.91
2022-12-31T16:29:22.905Z,100620.91
2022-12-31T16:31:52.518Z,100614.91
2022-12-31T16:34:24.932Z,100621.97
2022-12-31T16:37:01.773Z,100625.41
2022-12-31T16:39:36.901Z,100631.28
2022-12-31T16:42:23.783Z,100622.91
2022-12-31T16:44:54.997Z,100624.78
2022-12-31T16:47:24.627Z,100613.41
2022-12-31T16:50:12.717Z,100623.72
2022-12-31T16:52:44.873Z,100625.22
2022-12-31T16:55:24.446Z,100626.97
2022-12-31T16:57:58.618Z,100625.16
2022-12-31T17:00:26.306Z,100626.22
2022-12-31T17:03:11.159Z,100619.22
2022-12-31T17:06:10.798Z,100596.16
2022-12-31T17:08:40.265Z,100610.97
2022-12-31T17:11:28.781Z,100605.97
2022-12-31T17:14:12.873Z,100616.22
2022-12-31T17:17:02.981Z,100619.13
2022-12-31T17:19:41.894Z,100621.53
2022-12-31T17:22:41.977Z,100616.97
2022-12-31T17:25:18.622Z,100608.41
2022-12-31T17:28:02.304Z,100603.31
2022-12-31T17:30:35.226Z,100612.88
2022-12-31T17:33:06.110Z,100608.63
2022-12-31T17:35:42.098Z,100606.81
2022-12-31T17:38:17.835Z,100609.47
2022-12-31T17:40:53.442Z,100602.69
2022-12-31T17:43:22.864Z,100596.63
2022-12-31T17:45:54.440Z,100604.22
2022-12-31T17:48:24.304Z,100604.13
2022-12-31T17:50:56.135Z,100598.91
2022-12-31T17:53:23.511Z,100615.91
2022-12-31T17:55:52.525Z,100612.78
2022-12-31T17:58:44.642Z,100616.78
2022-12-31T18:01:15.538Z,100622.72
2022-12-31T18:03:42.323Z,100619.28
2022-12-31T18:06:14.630Z,100626.13
2022-12-31T18:08:43.314Z,100618.47
2022-12-31T18:11:20.978Z,100614.91
2022-12-31T18:13:48.265Z,100615.81
2022-12-31T18:16:15.706Z,100622.66
2022-12-31T18:18:43.714Z,100627.03
2022-12-31T18:21:28.964Z,100631.47
2022-12-31T18:26:23.523Z,100603.31
2022-12-31T18:28:50.779Z,100609.28
2022-12-31T18:31:20.612Z,100611.47
2022-12-31T18:33:48.111Z,100610.31
2022-12-31T18:36:16.913Z,100608.69
2022-12-31T18:38:43.575Z,100616.50
2022-12-31T18:41:22.413Z,100626.66
2022-12-31T18:43:49.329Z,100625.16
2022-12-31T18:46:24.458Z,100623.16
2022-12-31T18:48:50.895Z,100628.41
2022-12-31T18:51:20.437Z,100619.75
2022-12-31T18:53:47.230Z,100624.66
2022-12-31T18:56:16.754Z,100627.13
2022-12-31T18:58:44.058Z,100621.94
2022-12-31T19:01:30.405Z,100629.53
2022-12-31T19:04:02.399Z,100632.19
2022-12-31T19:06:30.066Z,100637.97
2022-12-31T19:08:56.654Z,100645.03
2022-12-31T19:11:23.702Z,100650.06
2022-12-31T19:13:50.325Z,100641.28
2022-12-31T19:16:17.987Z,100639.56
2022-12-31T19:18:45.207Z,100650.06
2022-12-31T19:21:20.707Z,100658.47
2022-12-31T19:23:47.194Z,100649.56
2022-12-31T19:26:19.326Z,100642.56
2022-12-31T19:28:47.060Z,100649.25
2022-12-31T19:31:14.476Z,100654.56
2022-12-31T19:33:42.623Z,100644.47
2022-12-31T19:36:20.279Z,100643.28
2022-12-31T19:38:47.319Z,100642.22
2022-12-31T19:41:19.429Z,100641.91
2022-12-31T19:43:47.475Z,100635.31
2022-12-31T19:46:16.165Z,100647.06
2022-12-31T19:48:43.557Z,100636.66
2022-12-31T19:51:12.491Z,100652.84
2022-12-31T19:53:39.330Z,100644.28
2022-12-31T19:56:06.079Z,100659.59
2022-12-31T19:58:32.659Z,100661.56
2022-12-31T20:01:03.190Z,100661.03
2022-12-31T20:03:32.383Z,100657.72
2022-12-31T20:06:10.550Z,100654.44
2022-12-31T20:08:38.787Z,100670.00
2022-12-31T20:11:24.391Z,100663.19
2022-12-31T20:13:53.500Z,100657.28
2022-12-31T20:16:23.422Z,100660.69
2022-12-31T20:18:50.577Z,100661.13
2022-12-31T20:21:20.891Z,100667.97
2022-12-31T20:23:49.010Z,100681.13
2022-12-31T20:26:15.703Z,100673.41
2022-12-31T20:28:42.556Z,100696.66
2022-12-31T20:31:15.993Z,100693.78
2022-12-31T20:33:43.168Z,100673.78
2022-12-31T20:36:12.433Z,100671.75
2022-12-31T20:38:38.838Z,100674.66
2022-12-31T20:41:09.501Z,100675.22
2022-12-31T20:43:36.497Z,100670.22
2022-12-31T20:46:16.156Z,100676.63
2022-12-31T20:48:44.473Z,100667.03
2022-12-31T20:51:12.577Z,100676.53
2022-12-31T20:53:39.022Z,100682.88
2022-12-31T20:56:08.819Z,100670.06
2022-12-31T20:58:35.722Z,100675.84
2022-12-31T21:01:06.316Z,100676.75
2022-12-31T21:04:04.223Z,100680.84
2022-12-31T21:06:21.686Z,100687.16
2022-12-31T21:08:48.433Z,100688.50
2022-12-31T21:11:34.098Z,100686.56
2022-12-31T21:14:01.033Z,100687.69
2022-12-31T21:16:28.310Z,100689.00
2022-12-31T21:18:54.941Z,100690.84
2022-12-31T21:21:21.897Z,100692.34
2022-12-31T21:23:48.341Z,100688.84
2022-12-31T21:26:14.946Z,100693.41
2022-12-31T21:28:41.695Z,100710.50
2022-12-31T21:31:08.963Z,100700.41
2022-12-31T21:33:35.441Z,100709.56
2022-12-31T21:36:04.652Z,100708.59
2022-12-31T21:38:31.556Z,100718.59
2022-12-31T21:41:03.106Z,100722.84
2022-12-31T21:43:29.768Z,100733.44
2022-12-31T21:46:04.724Z,100734.59
2022-12-31T21:48:32.136Z,100736.91
2022-12-31T21:51:12.795Z,100736.09
2022-12-31T21:53:39.370Z,100731.84
2022-12-31T21:56:09.317Z,100722.28
2022-12-31T21:58:41.964Z,100725.59
2022-12-31T22:01:38.796Z,100731.00
2022-12-31T22:04:07.918Z,100727.66
2022-12-31T22:06:39.562Z,100732.81
2022-12-31T22:09:05.976Z,100727.81
2022-12-31T22:11:32.442Z,100728.44
2022-12-31T22:13:58.888Z,100724.91
2022-12-31T22:16:25.562Z,100719.81
2022-12-31T22:18:55.223Z,100721.66
2022-12-31T22:21:24.172Z,100725.69
2022-12-31T22:23:52.962Z,100728.09
2022-12-31T22:26:25.484Z,100741.09
2022-12-31T22:28:52.589Z,100739.34
2022-12-31T22:31:24.982Z,100728.34
2022-12-31T22:33:52.280Z,100740.94
2022-12-31T22:36:21.232Z,100729.44
2022-12-31T22:38:49.009Z,100739.25
2022-12-31T22:41:19.179Z,100741.44
2022-12-31T22:43:51.546Z,100727.91
2022-12-31T22:46:21.135Z,100732.97
2022-12-31T22:48:47.884Z,100739.09
2022-12-31T22:51:16.064Z,100738.50
2022-12-31T22:53:43.456Z,100755.69
2022-12-31T22:56:12.669Z,100759.94
2022-12-31T22:58:39.182Z,100744.25
2022-12-31T23:01:07.754Z,100757.19
2022-12-31T23:03:34.740Z,100750.13
2022-12-31T23:06:01.235Z,100745.53
2022-12-31T23:08:27.718Z,100752.41
2022-12-31T23:11:01.170Z,100765.34
2022-12-31T23:13:51.379Z,100747.50
2022-12-31T23:16:37.942Z,100759.34
2022-12-31T23:19:24.628Z,100756.94
2022-12-31T23:22:09.867Z,100761.34
2022-12-31T23:24:36.752Z,100778.78
2022-12-31T23:27:03.772Z,100784.63
2022-12-31T23:29:30.232Z,100782.28
2022-12-31T23:31:56.743Z,100796.88
2022-12-31T23:34:23.302Z,100781.28
2022-12-31T23:36:49.744Z,100785.47
2022-12-31T23:39:16.264Z,100790.47
2022-12-31T23:41:42.862Z,100789.63
2022-12-31T23:44:11.918Z,100782.81
2022-12-31T23:46:39.053Z,100787.44
2022-12-31T23:49:06.105Z,100793.50
2022-12-31T23:51:32.845Z,100800.03
2022-12-31T23:53:59.233Z,100808.41
2022-12-31T23:56:25.690Z,100803.97
2022-12-31T23:58:56.428Z,100804.28
